KMGY/MGY METAR and TAF weather

Enter ICAO airport designator
Station Type Date Time Source
KMGY METAR 2021/07/20 22:53 UTC NOAA

KMGY 202253Z AUTO 32007KT 6SM HZ CLR 28/19 A2999 RMK AO2 SLP148 T02780194


Station Type Date Time Source
KMGY Decoded METAR 2021/07/20 22:53 UTC NOAA

DAYTON WRIGHT BROTHERS AIRPORT , OH, United States (KMGY) 39-36N 84-14W 289M
Jul 20, 2021 - 06:53 PM EDT / 2021.07.20 2253 UTC
Wind: from the NW (320 degrees) at 8 MPH (7 KT):0
Visibility: 6 mile(s):0
Sky conditions: clear
Weather: haze
Temperature: 82.0 F (27.8 C)
Dew Point: 66.9 F (19.4 C)
Relative Humidity: 60%
Pressure (altimeter): 29.99 in. Hg (1015 hPa)
ob: KMGY 202253Z AUTO 32007KT 6SM HZ CLR 28/19 A2999 RMK AO2 SLP148 T02780194
cycle: 23

Station Type Date Time Source
KMGY TAF UTC NOAA

Error!

Example: see airport list